| time (UTC) | temp C | wind direction | speed KPH | gust KPH | rain 1hr cm | rain 24hr cm | rain mn cm | humidity % | barometer mb |
| 20260506050855 | 14 | 263 | 12.9 | 12.9 | 0.00 | 0.00 | 0.00 | 47 | 1008.5 |
| 20260506044854 | 15 | 263 | 12.9 | 12.9 | 0.00 | 0.00 | 0.00 | 45 | 1008.2 |
| 20260506043913 | 16 | 263 | 12.9 | 12.9 | 0.00 | 0.00 | 0.00 | 44 | 1008.0 |
| 20260506042853 | 16 | 263 | 12.9 | 12.9 | 0.00 | 0.00 | 0.00 | 42 | 1008.1 |
| 20260506041853 | 16 | 263 | 12.9 | 12.9 | 0.00 | 0.00 | 0.00 | 40 | 1008.0 |
| 20260506040853 | 17 | 263 | 12.9 | 12.9 | 0.00 | 0.00 | 0.00 | 38 | 1007.8 |
| 20260506035913 | 17 | 263 | 12.9 | 12.9 | 0.00 | 0.00 | 0.00 | 38 | 1007.7 |
| 20260506034853 | 17 | 263 | 12.9 | 12.9 | 0.00 | 0.00 | 0.00 | 37 | 1007.5 |
| 20260506033853 | 17 | 263 | 12.9 | 12.9 | 0.00 | 0.00 | 0.00 | 37 | 1007.3 |
| 20260506032913 | 17 | 263 | 12.9 | 12.9 | 0.00 | 0.00 | 0.00 | 37 | 1007.2 |
| 20260506031853 | 18 | 263 | 12.9 | 12.9 | 0.00 | 0.00 | 0.00 | 37 | 1007.1 |
| 20260506030854 | 18 | 263 | 12.9 | 12.9 | 0.00 | 0.00 | 0.00 | 37 | 1007.0 |
| 20260506025852 | 18 | 263 | 12.9 | 12.9 | 0.00 | 0.00 | 0.00 | 36 | 1006.8 |
| 20260506024852 | 18 | 263 | 12.9 | 12.9 | 0.00 | 0.00 | 0.00 | 36 | 1006.7 |
| 20260506023852 | 18 | 263 | 12.9 | 12.9 | 0.00 | 0.00 | 0.00 | 36 | 1006.6 |
| 20260506022853 | 18 | 263 | 12.9 | 12.9 | 0.00 | 0.00 | 0.00 | 36 | 1006.4 |
| 20260506021852 | 18 | 263 | 12.9 | 12.9 | 0.00 | 0.00 | 0.00 | 36 | 1006.3 |
| 20260506020852 | 18 | 263 | 12.9 | 12.9 | 0.00 | 0.00 | 0.00 | 36 | 1006.1 |
| 20260506015912 | 19 | 263 | 12.9 | 12.9 | 0.00 | 0.00 | 0.00 | 36 | 1006.0 |
| 20260506014853 | 19 | 263 | 12.9 | 12.9 | 0.00 | 0.00 | 0.00 | 35 | 1005.9 |
| 20260506013852 | 19 | 262 | 9.7 | 16.1 | 0.00 | 0.00 | 0.00 | 35 | 1005.8 |
| 20260506012852 | 20 | 273 | 3.2 | 12.9 | 0.00 | 0.00 | 0.00 | 35 | 1005.7 |
| 20260506011852 | 20 | 270 | 12.9 | 20.9 | 0.00 | 0.00 | 0.00 | 35 | 1005.6 |
| 20260506010852 | 20 | 276 | 8.0 | 12.9 | 0.00 | 0.00 | 0.00 | 35 | 1005.4 |
| 20260506005851 | 20 | 275 | 6.4 | 12.9 | 0.00 | 0.00 | 0.00 | 36 | 1005.4 |
| 20260506004851 | 20 | 261 | 4.8 | 16.1 | 0.00 | 0.00 | 0.00 | 35 | 1005.3 |
| 20260506003852 | 20 | 259 | 17.7 | 17.7 | 0.00 | 0.00 | 0.00 | 35 | 1005.2 |
| 20260506002851 | 20 | 279 | 16.1 | 16.1 | 0.00 | 0.00 | 0.00 | 35 | 1005.1 |
| 20260506001851 | 21 | 229 | 12.9 | 14.5 | 0.00 | 0.00 | 0.00 | 36 | 1005.0 |
| 20260506000911 | 21 | 282 | 16.1 | 16.1 | 0.00 | 0.00 | 0.00 | 35 | 1004.9 |
| 20260505235851 | 21 | 264 | 8.0 | 16.1 | 0.00 | 0.00 | 0.00 | 35 | 1004.8 |
| 20260505234851 | 21 | 247 | 14.5 | 17.7 | 0.00 | 0.00 | 0.00 | 35 | 1004.7 |
| 20260505233851 | 21 | 221 | 14.5 | 17.7 | 0.00 | 0.00 | 0.00 | 36 | 1004.8 |
| 20260505232851 | 21 | 199 | 12.9 | 16.1 | 0.00 | 0.00 | 0.00 | 37 | 1004.7 |
| 20260505231851 | 21 | 192 | 4.8 | 16.1 | 0.00 | 0.00 | 0.00 | 38 | 1004.8 |
| 20260505230850 | 21 | 186 | 4.8 | 8.0 | 0.00 | 0.00 | 0.00 | 38 | 1004.6 |
| 20260505225851 | 21 | 265 | 14.5 | 22.5 | 0.00 | 0.00 | 0.00 | 39 | 1004.7 |
| 20260505224910 | 21 | 257 | 8.0 | 16.1 | 0.00 | 0.00 | 0.00 | 39 | 1004.6 |
| 20260505223910 | 21 | 232 | 6.4 | 16.1 | 0.00 | 0.00 | 0.00 | 38 | 1004.7 |
| 20260505222911 | 22 | 267 | 4.8 | 17.7 | 0.00 | 0.00 | 0.00 | 40 | 1004.7 |
| 20260505221851 | 21 | 271 | 14.5 | 16.1 | 0.00 | 0.00 | 0.00 | 39 | 1004.8 |
| 20260505220850 | 22 | 242 | 25.7 | 27.4 | 0.00 | 0.00 | 0.00 | 32 | 1004.6 |
| 20260505215851 | 22 | 179 | 16.1 | 17.7 | 0.00 | 0.00 | 0.00 | 32 | 1004.9 |
| 20260505214850 | 23 | 214 | 19.3 | 27.4 | 0.00 | 0.00 | 0.00 | 30 | 1004.8 |
| 20260505213850 | 23 | 219 | 22.5 | 25.7 | 0.00 | 0.00 | 0.00 | 28 | 1005.1 |
| 20260505212851 | 23 | 183 | 8.0 | 27.4 | 0.00 | 0.00 | 0.00 | 28 | 1005.5 |
| 20260505211849 | 23 | 215 | 14.5 | 20.9 | 0.00 | 0.00 | 0.00 | 29 | 1005.5 |
| 20260505210849 | 23 | 268 | 12.9 | 22.5 | 0.00 | 0.00 | 0.00 | 32 | 1005.7 |
| 20260505205850 | 23 | 240 | 8.0 | 20.9 | 0.00 | 0.00 | 0.00 | 34 | 1005.8 |
| 20260505204850 | 23 | 187 | 8.0 | 16.1 | 0.00 | 0.00 | 0.00 | 35 | 1005.9 |
| 20260505203849 | 22 | 210 | 16.1 | 20.9 | 0.00 | 0.00 | 0.00 | 36 | 1006.1 |
| 20260505202909 | 22 | 221 | 16.1 | 25.7 | 0.00 | 0.00 | 0.00 | 38 | 1006.3 |
| 20260505201849 | 22 | 217 | 6.4 | 16.1 | 0.00 | 0.00 | 0.00 | 39 | 1006.1 |
| 20260505200849 | 22 | 167 | 20.9 | 30.6 | 0.00 | 0.00 | 0.00 | 41 | 1006.2 |
| 20260505195929 | 22 | 183 | 22.5 | 27.4 | 0.00 | 0.00 | 0.00 | 44 | 1006.3 |
| 20260505194849 | 22 | 159 | 14.5 | 16.1 | 0.00 | 0.00 | 0.00 | 45 | 1006.3 |
| 20260505193908 | 21 | 195 | 8.0 | 16.1 | 0.00 | 0.00 | 0.00 | 46 | 1006.5 |
| 20260505192848 | 21 | 190 | 22.5 | 24.1 | 0.00 | 0.00 | 0.00 | 49 | 1006.6 |
| 20260505191849 | 20 | 198 | 12.9 | 22.5 | 0.00 | 0.00 | 0.00 | 51 | 1006.6 |
| 20260505190848 | 20 | 175 | 17.7 | 24.1 | 0.00 | 0.00 | 0.00 | 50 | 1006.8 |
| 20260505185848 | 20 | 204 | 1.6 | 11.3 | 0.00 | 0.00 | 0.00 | 52 | 1006.9 |
| 20260505184848 | 20 | 203 | 9.7 | 19.3 | 0.00 | 0.00 | 0.00 | 52 | 1006.8 |
| 20260505183848 | 20 | 191 | 17.7 | 29.0 | 0.00 | 0.00 | 0.00 | 52 | 1006.9 |
| 20260505182848 | 20 | 196 | 8.0 | 12.9 | 0.00 | 0.00 | 0.00 | 55 | 1006.9 |
| 20260505181849 | 18 | 190 | 14.5 | 17.7 | 0.00 | 0.00 | 0.00 | 58 | 1006.8 |
| 20260505180848 | 18 | 170 | 4.8 | 14.5 | 0.00 | 0.00 | 0.00 | 60 | 1006.7 |
| 20260505175849 | 18 | 163 | 4.8 | 9.7 | 0.00 | 0.00 | 0.00 | 59 | 1006.7 |
| 20260505174847 | 19 | 200 | 3.2 | 9.7 | 0.00 | 0.00 | 0.00 | 58 | 1006.9 |
| 20260505173848 | 19 | 188 | 6.4 | 19.3 | 0.00 | 0.00 | 0.00 | 60 | 1006.8 |
| 20260505172847 | 18 | 200 | 8.0 | 14.5 | 0.00 | 0.00 | 0.00 | 64 | 1006.7 |
| 20260505171847 | 18 | 202 | 14.5 | 16.1 | 0.00 | 0.00 | 0.00 | 65 | 1006.8 |
| 20260505170847 | 18 | 175 | 9.7 | 16.1 | 0.00 | 0.00 | 0.00 | 66 | 1006.7 |
| 20260505165847 | 17 | 175 | 0.0 | 12.9 | 0.00 | 0.00 | 0.00 | 67 | 1006.7 |
| 20260505164907 | 17 | 175 | 1.6 | 1.6 | 0.00 | 0.00 | 0.00 | 68 | 1006.8 |
| 20260505163927 | 17 | 174 | 6.4 | 12.9 | 0.00 | 0.00 | 0.00 | 69 | 1006.9 |
| 20260505162848 | 17 | 173 | 4.8 | 14.5 | 0.00 | 0.00 | 0.00 | 70 | 1006.9 |
| 20260505161847 | 16 | 165 | 3.2 | 9.7 | 0.00 | 0.00 | 0.00 | 76 | 1006.8 |
| 20260505160846 | 16 | 162 | 1.6 | 1.6 | 0.00 | 0.00 | 0.00 | 75 | 1006.5 |
| 20260505152846 | 15 | 164 | 0.0 | 0.0 | 0.00 | 0.00 | 0.00 | 85 | 1006.5 |
| 20260505151846 | 15 | 164 | 0.0 | 0.0 | 0.00 | 0.00 | 0.00 | 86 | 1006.5 |
| 20260505150846 | 15 | 164 | 0.0 | 0.0 | 0.00 | 0.00 | 0.00 | 88 | 1006.3 |
| 20260505124845 | 13 | 233 | 16.1 | 16.1 | 0.00 | 0.00 | 0.00 | 87 | 1005.7 |
| 20260505123845 | 13 | 233 | 16.1 | 16.1 | 0.00 | 0.00 | 0.00 | 87 | 1005.6 |
| 20260505122846 | 13 | 233 | 16.1 | 16.1 | 0.00 | 0.00 | 0.00 | 87 | 1005.7 |
| 20260505121844 | 13 | 233 | 16.1 | 16.1 | 0.00 | 0.00 | 0.00 | 87 | 1005.5 |
| 20260505120844 | 13 | 233 | 16.1 | 16.1 | 0.00 | 0.00 | 0.00 | 87 | 1005.6 |
| 20260505115904 | 13 | 233 | 16.1 | 16.1 | 0.00 | 0.00 | 0.00 | 86 | 1005.5 |
| 20260505114844 | 13 | 233 | 16.1 | 16.1 | 0.00 | 0.00 | 0.00 | 86 | 1005.6 |
| 20260505113844 | 13 | 233 | 16.1 | 16.1 | 0.00 | 0.00 | 0.00 | 86 | 1005.7 |
| 20260505112905 | 13 | 233 | 16.1 | 16.1 | 0.00 | 0.00 | 0.00 | 86 | 1005.6 |
| 20260505111845 | 13 | 233 | 16.1 | 16.1 | 0.00 | 0.00 | 0.00 | 86 | 1005.8 |
| 20260505110924 | 13 | 233 | 16.1 | 16.1 | 0.00 | 0.00 | 0.00 | 86 | 1005.6 |
| 20260505101845 | 15 | 233 | 16.1 | 16.1 | 0.00 | 0.00 | 0.00 | 82 | 1006.5 |
| 20260505100843 | 15 | 233 | 16.1 | 16.1 | 0.00 | 0.00 | 0.00 | 81 | 1006.5 |
| 20260505095843 | 15 | 233 | 16.1 | 16.1 | 0.00 | 0.00 | 0.00 | 81 | 1006.6 |
| 20260505094843 | 15 | 233 | 16.1 | 16.1 | 0.00 | 0.00 | 0.00 | 79 | 1006.8 |
| 20260505093843 | 15 | 233 | 16.1 | 16.1 | 0.00 | 0.00 | 0.00 | 78 | 1006.7 |
| 20260505092843 | 15 | 233 | 16.1 | 16.1 | 0.00 | 0.00 | 0.00 | 76 | 1006.8 |
| 20260505091843 | 15 | 233 | 16.1 | 16.1 | 0.00 | 0.00 | 0.00 | 75 | 1007.0 |
| 20260505090842 | 15 | 233 | 16.1 | 16.1 | 0.00 | 0.00 | 0.00 | 75 | 1007.0 |
| 20260505085903 | 15 | 233 | 16.1 | 16.1 | 0.00 | 0.00 | 0.00 | 75 | 1007.2 |
| 20260505084842 | 15 | 233 | 16.1 | 16.1 | 0.00 | 0.00 | 0.00 | 75 | 1007.3 |
| 20260505083843 | 15 | 233 | 16.1 | 16.1 | 0.00 | 0.00 | 0.00 | 75 | 1007.5 |
| 20260505082842 | 15 | 233 | 16.1 | 16.1 | 0.00 | 0.00 | 0.00 | 75 | 1007.6 |
| 20260505081843 | 15 | 233 | 16.1 | 16.1 | 0.00 | 0.00 | 0.00 | 74 | 1007.5 |
| 20260505080842 | 15 | 233 | 16.1 | 16.1 | 0.00 | 0.00 | 0.00 | 73 | 1007.6 |
| 20260505075922 | 15 | 233 | 16.1 | 16.1 | 0.00 | 0.00 | 0.00 | 71 | 1007.7 |
| 20260505074842 | 15 | 233 | 16.1 | 16.1 | 0.00 | 0.00 | 0.00 | 70 | 1007.8 |
| 20260505073902 | 16 | 233 | 16.1 | 16.1 | 0.00 | 0.00 | 0.00 | 68 | 1007.8 |
| 20260505072842 | 16 | 233 | 16.1 | 16.1 | 0.00 | 0.00 | 0.00 | 66 | 1007.9 |
| 20260505071842 | 16 | 233 | 16.1 | 16.1 | 0.00 | 0.00 | 0.00 | 65 | 1007.9 |
| 20260505070921 | 16 | 233 | 16.1 | 16.1 | 0.00 | 0.00 | 0.00 | 64 | 1007.8 |
| 20260505065841 | 17 | 233 | 16.1 | 16.1 | 0.00 | 0.00 | 0.00 | 60 | 1007.9 |
| 20260505064841 | 17 | 233 | 16.1 | 16.1 | 0.00 | 0.00 | 0.00 | 57 | 1007.7 |
| 20260505063841 | 17 | 233 | 16.1 | 16.1 | 0.00 | 0.00 | 0.00 | 56 | 1007.4 |
| 20260505062841 | 17 | 233 | 16.1 | 16.1 | 0.00 | 0.00 | 0.00 | 55 | 1007.4 |
| 20260505061841 | 17 | 233 | 16.1 | 16.1 | 0.00 | 0.00 | 0.00 | 54 | 1007.5 |
| 20260505060841 | 17 | 233 | 16.1 | 16.1 | 0.00 | 0.00 | 0.00 | 52 | 1007.5 |
| 20260505055841 | 17 | 233 | 16.1 | 16.1 | 0.00 | 0.00 | 0.00 | 51 | 1007.7 |